EDDB/SXF METAR and TAF weather

Enter ICAO airport designator
Station Type Date Time Source
EDDB METAR 2022/08/13 12:20 UTC NOAA

EDDB 131220Z AUTO 04007KT 9999 VCSH FEW016 FEW///TCU 25/15 Q1018


Station Type Date Time Source
EDDB Decoded METAR 2022/08/13 12:20 UTC NOAA

Berlin-Schoenefeld, Germany (EDDB) 52-23N 013-31E 50M
Aug 13, 2022 - 08:20 AM EDT / 2022.08.13 1220 UTC
Wind: from the NE (040 degrees) at 8 MPH (7 KT):0
Visibility: greater than 7 mile(s):0
Sky conditions: mostly clear
Weather: showers in the vicinity; Towering cumulus clouds observed
Temperature: 77 F (25 C)
Dew Point: 59 F (15 C)
Relative Humidity: 53%
Pressure (altimeter): 30.06 in. Hg (1018 hPa)
ob: EDDB 131220Z AUTO 04007KT 9999 VCSH FEW016 FEW///TCU 25/15 Q1018
cycle: 12

Station Type Date Time Source
EDDB TAF 2022/08/13 12:27 UTC NOAA

TAF TAF EDDB 131100Z 1312/1412 07010KT CAVOK PROB30
TEMPO 1313/1317 SHRA BKN040CB
BECMG 1316/1319 04003KT
BECMG 1407/1410 06008KT

Example: see airport list